sensor_id;sensor_type;location;lat;lon;timestamp;pressure;altitude;pressure_sealevel;temperature;humidity
10145;BME280;5113;41.822;23.564;2022-09-09T00:00:37;-11338.19;;;14.59;100.00
10145;BME280;5113;41.822;23.564;2022-09-09T00:03:54;-11334.09;;;14.44;100.00
10145;BME280;5113;41.822;23.564;2022-09-09T00:07:05;-11323.97;;;14.08;100.00
10145;BME280;5113;41.822;23.564;2022-09-09T00:10:21;-11310.31;;;13.59;100.00
10145;BME280;5113;41.822;23.564;2022-09-09T00:13:35;-11315.38;;;13.77;100.00
10145;BME280;5113;41.822;23.564;2022-09-09T00:16:49;-11325.50;;;14.13;100.00
10145;BME280;5113;41.822;23.564;2022-09-09T00:20:03;-11319.19;;;13.91;100.00
10145;BME280;5113;41.822;23.564;2022-09-09T00:23:12;-11314.13;;;13.72;100.00
10145;BME280;5113;41.822;23.564;2022-09-09T00:26:24;-11313.84;;;13.71;100.00
10145;BME280;5113;41.822;23.564;2022-09-09T00:29:41;-11318.19;;;13.87;100.00
10145;BME280;5113;41.822;23.564;2022-09-09T00:32:50;-11316.09;;;13.79;100.00
10145;BME280;5113;41.822;23.564;2022-09-09T00:36:01;-11323.69;;;14.07;100.00
10145;BME280;5113;41.822;23.564;2022-09-09T00:39:12;-11337.78;;;14.58;100.00
10145;BME280;5113;41.822;23.564;2022-09-09T00:42:24;-11324.25;;;14.09;100.00
10145;BME280;5113;41.822;23.564;2022-09-09T00:45:47;-11330.88;;;14.33;100.00
10145;BME280;5113;41.822;23.564;2022-09-09T00:49:04;-11333.56;;;14.42;100.00
10145;BME280;5113;41.822;23.564;2022-09-09T00:52:30;-11340.44;;;14.67;100.00
10145;BME280;5113;41.822;23.564;2022-09-09T00:55:43;-11342.28;;;14.74;100.00
10145;BME280;5113;41.822;23.564;2022-09-09T00:59:00;-11336.09;;;14.51;100.00
10145;BME280;5113;41.822;23.564;2022-09-09T01:02:18;-11338.75;;;14.61;100.00
10145;BME280;5113;41.822;23.564;2022-09-09T01:05:34;-11335.38;;;14.49;100.00
10145;BME280;5113;41.822;23.564;2022-09-09T01:09:07;-11325.22;;;14.12;100.00
10145;BME280;5113;41.822;23.564;2022-09-09T01:12:23;-11336.38;;;14.52;100.00
10145;BME280;5113;41.822;23.564;2022-09-09T01:15:31;-11321.16;;;13.98;100.00
10145;BME280;5113;41.822;23.564;2022-09-09T01:18:43;-11335.09;;;14.48;100.00
10145;BME280;5113;41.822;23.564;2022-09-09T01:21:56;-11338.75;;;14.61;100.00
10145;BME280;5113;41.822;23.564;2022-09-09T01:25:19;-11338.06;;;14.59;100.00
10145;BME280;5113;41.822;23.564;2022-09-09T01:28:28;-11323.13;;;14.05;100.00
10145;BME280;5113;41.822;23.564;2022-09-09T01:31:38;-11318.75;;;13.89;100.00
10145;BME280;5113;41.822;23.564;2022-09-09T01:34:45;-11328.47;;;14.24;100.00
10145;BME280;5113;41.822;23.564;2022-09-09T01:37:52;-11316.94;;;13.82;100.00
10145;BME280;5113;41.822;23.564;2022-09-09T01:40:58;-11329.59;;;14.28;100.00
10145;BME280;5113;41.822;23.564;2022-09-09T01:44:07;-11329.47;;;14.28;100.00
10145;BME280;5113;41.822;23.564;2022-09-09T01:47:15;-11334.09;;;14.44;100.00
10145;BME280;5113;41.822;23.564;2022-09-09T01:50:22;-11309.88;;;13.57;100.00
10145;BME280;5113;41.822;23.564;2022-09-09T01:53:28;-11298.50;;;13.16;100.00
10145;BME280;5113;41.822;23.564;2022-09-09T01:56:41;-11307.22;;;13.47;100.00
10145;BME280;5113;41.822;23.564;2022-09-09T02:00:02;-11299.91;;;13.21;100.00
10145;BME280;5113;41.822;23.564;2022-09-09T02:03:20;-11319.19;;;13.91;100.00
10145;BME280;5113;41.822;23.564;2022-09-09T02:06:34;-11309.75;;;13.57;100.00
10145;BME280;5113;41.822;23.564;2022-09-09T02:09:43;-11314.25;;;13.73;100.00
10145;BME280;5113;41.822;23.564;2022-09-09T02:12:57;-11326.66;;;14.17;100.00
10145;BME280;5113;41.822;23.564;2022-09-09T02:16:12;-11331.28;;;14.34;100.00
10145;BME280;5113;41.822;23.564;2022-09-09T02:19:23;-11337.22;;;14.56;100.00
10145;BME280;5113;41.822;23.564;2022-09-09T02:22:33;-11338.19;;;14.59;100.00
10145;BME280;5113;41.822;23.564;2022-09-09T02:25:41;-11341.44;;;14.71;100.00
10145;BME280;5113;41.822;23.564;2022-09-09T02:28:50;-11338.06;;;14.59;100.00
10145;BME280;5113;41.822;23.564;2022-09-09T02:32:01;-11337.78;;;14.58;100.00
10145;BME280;5113;41.822;23.564;2022-09-09T02:35:13;-11337.22;;;14.56;100.00
10145;BME280;5113;41.822;23.564;2022-09-09T02:38:21;-11339.19;;;14.63;100.00
10145;BME280;5113;41.822;23.564;2022-09-09T02:41:32;-11327.63;;;14.21;100.00
10145;BME280;5113;41.822;23.564;2022-09-09T02:44:39;-11316.94;;;13.82;100.00
10145;BME280;5113;41.822;23.564;2022-09-09T02:47:52;-11322.28;;;14.02;100.00
10145;BME280;5113;41.822;23.564;2022-09-09T02:51:25;-11318.34;;;13.87;100.00
10145;BME280;5113;41.822;23.564;2022-09-09T02:54:35;-11316.94;;;13.82;100.00
10145;BME280;5113;41.822;23.564;2022-09-09T02:57:42;-11307.34;;;13.48;100.00
10145;BME280;5113;41.822;23.564;2022-09-09T03:00:51;-11317.78;;;13.85;100.00
10145;BME280;5113;41.822;23.564;2022-09-09T03:03:59;-11312.72;;;13.67;100.00
10145;BME280;5113;41.822;23.564;2022-09-09T03:07:05;-11309.88;;;13.57;100.00
10145;BME280;5113;41.822;23.564;2022-09-09T03:10:11;-11318.06;;;13.86;100.00
10145;BME280;5113;41.822;23.564;2022-09-09T03:13:18;-11310.44;;;13.59;100.00
10145;BME280;5113;41.822;23.564;2022-09-09T03:16:24;-11299.75;;;13.20;100.00
10145;BME280;5113;41.822;23.564;2022-09-09T03:19:32;-11305.25;;;13.40;100.00
10145;BME280;5113;41.822;23.564;2022-09-09T03:22:40;-11297.34;;;13.12;100.00
10145;BME280;5113;41.822;23.564;2022-09-09T03:25:49;-11311.56;;;13.63;100.00
10145;BME280;5113;41.822;23.564;2022-09-09T03:28:56;-11311.56;;;13.63;100.00
10145;BME280;5113;41.822;23.564;2022-09-09T03:32:05;-11313.56;;;13.70;100.00
10145;BME280;5113;41.822;23.564;2022-09-09T03:35:12;-11303.41;;;13.34;100.00
10145;BME280;5113;41.822;23.564;2022-09-09T03:38:20;-11308.47;;;13.52;100.00
10145;BME280;5113;41.822;23.564;2022-09-09T03:41:26;-11312.84;;;13.68;100.00
10145;BME280;5113;41.822;23.564;2022-09-09T03:44:33;-11323.41;;;14.06;100.00
10145;BME280;5113;41.822;23.564;2022-09-09T03:47:39;-11321.44;;;13.99;100.00
10145;BME280;5113;41.822;23.564;2022-09-09T03:50:47;-11320.03;;;13.94;100.00
10145;BME280;5113;41.822;23.564;2022-09-09T03:53:54;-11317.06;;;13.83;100.00
10145;BME280;5113;41.822;23.564;2022-09-09T03:57:01;-11308.19;;;13.51;100.00
10145;BME280;5113;41.822;23.564;2022-09-09T04:00:08;-11305.94;;;13.43;100.00
10145;BME280;5113;41.822;23.564;2022-09-09T04:03:15;-11301.88;;;13.28;100.00
10145;BME280;5113;41.822;23.564;2022-09-09T04:06:23;-11300.75;;;13.24;100.00
10145;BME280;5113;41.822;23.564;2022-09-09T04:09:29;-11305.94;;;13.43;100.00
10145;BME280;5113;41.822;23.564;2022-09-09T04:12:35;-11317.50;;;13.84;100.00
10145;BME280;5113;41.822;23.564;2022-09-09T04:15:42;-11300.88;;;13.25;100.00
10145;BME280;5113;41.822;23.564;2022-09-09T04:18:48;-11289.06;;;12.82;100.00
10145;BME280;5113;41.822;23.564;2022-09-09T04:21:56;-11292.44;;;12.94;100.00
10145;BME280;5113;41.822;23.564;2022-09-09T04:25:02;-11288.47;;;12.80;100.00
10145;BME280;5113;41.822;23.564;2022-09-09T04:28:08;-11303.97;;;13.36;100.00
10145;BME280;5113;41.822;23.564;2022-09-09T04:31:16;-11303.28;;;13.33;100.00
10145;BME280;5113;41.822;23.564;2022-09-09T04:34:23;-11307.22;;;13.47;100.00
10145;BME280;5113;41.822;23.564;2022-09-09T04:37:31;-11315.81;;;13.78;100.00
10145;BME280;5113;41.822;23.564;2022-09-09T04:40:37;-11307.63;;;13.49;100.00
10145;BME280;5113;41.822;23.564;2022-09-09T04:43:45;-11319.03;;;13.90;100.00
10145;BME280;5113;41.822;23.564;2022-09-09T04:46:51;-11326.78;;;14.18;100.00
10145;BME280;5113;41.822;23.564;2022-09-09T04:49:57;-11312.13;;;13.65;100.00
10145;BME280;5113;41.822;23.564;2022-09-09T04:53:05;-11302.00;;;13.29;100.00
10145;BME280;5113;41.822;23.564;2022-09-09T04:56:14;-11299.19;;;13.18;100.00
10145;BME280;5113;41.822;23.564;2022-09-09T04:59:20;-11321.00;;;13.97;100.00
10145;BME280;5113;41.822;23.564;2022-09-09T05:02:26;-11335.22;;;14.48;100.00
10145;BME280;5113;41.822;23.564;2022-09-09T05:05:36;-11346.78;;;14.90;100.00
10145;BME280;5113;41.822;23.564;2022-09-09T05:08:43;-11332.97;;;14.40;100.00
10145;BME280;5113;41.822;23.564;2022-09-09T05:11:50;-11341.72;;;14.72;100.00
10145;BME280;5113;41.822;23.564;2022-09-09T05:14:56;-11320.88;;;13.97;100.00
10145;BME280;5113;41.822;23.564;2022-09-09T05:18:03;-11325.38;;;14.13;100.00
10145;BME280;5113;41.822;23.564;2022-09-09T05:21:09;-11345.94;;;14.87;100.00
10145;BME280;5113;41.822;23.564;2022-09-09T05:24:17;-11342.84;;;14.76;100.00
10145;BME280;5113;41.822;23.564;2022-09-09T05:27:23;-11354.25;;;15.17;100.00
10145;BME280;5113;41.822;23.564;2022-09-09T05:30:30;-11362.56;;;15.47;100.00
10145;BME280;5113;41.822;23.564;2022-09-09T05:33:36;-11367.63;;;15.65;100.00
10145;BME280;5113;41.822;23.564;2022-09-09T05:36:45;-11373.69;;;15.87;100.00
10145;BME280;5113;41.822;23.564;2022-09-09T05:39:53;-11366.78;;;15.62;100.00
10145;BME280;5113;41.822;23.564;2022-09-09T05:43:00;-11380.31;;;16.11;100.00
10145;BME280;5113;41.822;23.564;2022-09-09T05:46:09;-11383.41;;;16.22;100.00
10145;BME280;5113;41.822;23.564;2022-09-09T05:49:16;-11393.28;;;16.58;100.00
10145;BME280;5113;41.822;23.564;2022-09-09T05:52:22;-11396.09;;;16.68;100.00
10145;BME280;5113;41.822;23.564;2022-09-09T05:55:31;-11396.94;;;16.71;100.00
10145;BME280;5113;41.822;23.564;2022-09-09T05:58:38;-11411.19;;;17.22;100.00
10145;BME280;5113;41.822;23.564;2022-09-09T06:01:44;-11415.53;;;17.38;100.00
10145;BME280;5113;41.822;23.564;2022-09-09T06:04:51;-11412.31;;;17.26;100.00
10145;BME280;5113;41.822;23.564;2022-09-09T06:08:04;-11414.13;;;17.33;100.00
10145;BME280;5113;41.822;23.564;2022-09-09T06:11:13;-11421.75;;;17.60;100.00
10145;BME280;5113;41.822;23.564;2022-09-09T06:14:20;-11435.00;;;18.08;100.00
10145;BME280;5113;41.822;23.564;2022-09-09T06:17:27;-11411.03;;;17.22;100.00
10145;BME280;5113;41.822;23.564;2022-09-09T06:20:33;-11424.16;;;17.69;100.00
10145;BME280;5113;41.822;23.564;2022-09-09T06:23:40;-11434.44;;;18.06;100.00
10145;BME280;5113;41.822;23.564;2022-09-09T06:26:47;-11436.41;;;18.13;100.00
10145;BME280;5113;41.822;23.564;2022-09-09T06:29:54;-11430.22;;;17.91;100.00
10145;BME280;5113;41.822;23.564;2022-09-09T06:33:00;-11411.03;;;17.22;100.00
10145;BME280;5113;41.822;23.564;2022-09-09T06:36:09;-11414.69;;;17.35;100.00
10145;BME280;5113;41.822;23.564;2022-09-09T06:39:16;-11418.09;;;17.47;100.00
10145;BME280;5113;41.822;23.564;2022-09-09T06:42:24;-11421.75;;;17.60;100.00
10145;BME280;5113;41.822;23.564;2022-09-09T06:45:30;-11413.56;;;17.31;100.00
10145;BME280;5113;41.822;23.564;2022-09-09T06:48:36;-11427.94;;;17.83;100.00
10145;BME280;5113;41.822;23.564;2022-09-09T06:51:44;-11437.41;;;18.17;100.00
10145;BME280;5113;41.822;23.564;2022-09-09T06:54:50;-11420.63;;;17.56;100.00
10145;BME280;5113;41.822;23.564;2022-09-09T06:57:58;-11425.28;;;17.73;100.00
10145;BME280;5113;41.822;23.564;2022-09-09T07:01:05;-11444.16;;;18.41;100.00
10145;BME280;5113;41.822;23.564;2022-09-09T07:04:12;-11445.28;;;18.45;100.00
10145;BME280;5113;41.822;23.564;2022-09-09T07:07:19;-11458.69;;;18.93;100.00
10145;BME280;5113;41.822;23.564;2022-09-09T07:10:25;-11442.06;;;18.33;100.00
10145;BME280;5113;41.822;23.564;2022-09-09T07:13:33;-11470.53;;;19.36;100.00
10145;BME280;5113;41.822;23.564;2022-09-09T07:16:39;-11476.47;;;19.57;100.00
10145;BME280;5113;41.822;23.564;2022-09-09T07:19:46;-11480.97;;;19.73;100.00
10145;BME280;5113;41.822;23.564;2022-09-09T07:22:54;-11475.75;;;19.55;100.00
10145;BME280;5113;41.822;23.564;2022-09-09T07:26:01;-11493.09;;;20.17;100.00
10145;BME280;5113;41.822;23.564;2022-09-09T07:29:09;-11501.84;;;20.49;100.00
10145;BME280;5113;41.822;23.564;2022-09-09T07:32:24;-11493.38;;;20.18;100.00
10145;BME280;5113;41.822;23.564;2022-09-09T07:35:32;-11492.41;;;20.15;100.00
10145;BME280;5113;41.822;23.564;2022-09-09T07:38:39;-11509.47;;;20.76;100.00
10145;BME280;5113;41.822;23.564;2022-09-09T07:41:47;-11501.13;;;20.46;100.00
10145;BME280;5113;41.822;23.564;2022-09-09T07:44:55;-11523.84;;;21.28;100.00
10145;BME280;5113;41.822;23.564;2022-09-09T07:48:01;-11511.84;;;20.85;100.00
10145;BME280;5113;41.822;23.564;2022-09-09T07:51:09;-11516.78;;;21.02;100.00
10145;BME280;5113;41.822;23.564;2022-09-09T07:54:18;-11526.94;;;21.39;100.00
10145;BME280;5113;41.822;23.564;2022-09-09T07:57:25;-11531.03;;;21.54;100.00
10145;BME280;5113;41.822;23.564;2022-09-09T08:00:33;-11527.53;;;21.41;100.00
10145;BME280;5113;41.822;23.564;2022-09-09T08:03:39;-11536.56;;;21.73;98.32
10145;BME280;5113;41.822;23.564;2022-09-09T08:06:47;-11542.75;;;21.96;95.87
10145;BME280;5113;41.822;23.564;2022-09-09T08:09:54;-11564.50;;;22.74;93.23
10145;BME280;5113;41.822;23.564;2022-09-09T08:13:01;-11554.91;;;22.39;96.85
10145;BME280;5113;41.822;23.564;2022-09-09T08:16:26;-11540.22;;;21.87;95.47
10145;BME280;5113;41.822;23.564;2022-09-09T08:19:33;-11557.16;;;22.48;95.26
10145;BME280;5113;41.822;23.564;2022-09-09T08:22:40;-11540.22;;;21.87;99.15
10145;BME280;5113;41.822;23.564;2022-09-09T08:25:47;-11547.84;;;22.14;98.12
10145;BME280;5113;41.822;23.564;2022-09-09T08:28:56;-11557.72;;;22.50;94.34
10145;BME280;5113;41.822;23.564;2022-09-09T08:32:04;-11570.84;;;22.97;93.09
10145;BME280;5113;41.822;23.564;2022-09-09T08:35:11;-11590.47;;;23.67;91.58
10145;BME280;5113;41.822;23.564;2022-09-09T08:38:17;-11588.78;;;23.61;88.66
10145;BME280;5113;41.822;23.564;2022-09-09T08:41:38;-11587.63;;;23.57;88.89
10145;BME280;5113;41.822;23.564;2022-09-09T08:48:24;-11584.94;;;23.48;89.07
10145;BME280;5113;41.822;23.564;2022-09-09T08:51:37;-11580.72;;;23.32;90.26
10145;BME280;5113;41.822;23.564;2022-09-09T08:54:44;-11591.31;;;23.70;87.23
10145;BME280;5113;41.822;23.564;2022-09-09T08:57:57;-11586.38;;;23.53;88.09
10145;BME280;5113;41.822;23.564;2022-09-09T09:01:19;-11605.56;;;24.22;83.57
10145;BME280;5113;41.822;23.564;2022-09-09T09:04:38;-11627.88;;;25.02;81.65
10145;BME280;5113;41.822;23.564;2022-09-09T09:07:55;-11618.28;;;24.67;81.40
10145;BME280;5113;41.822;23.564;2022-09-09T09:11:05;-11594.97;;;23.84;84.29
10145;BME280;5113;41.822;23.564;2022-09-09T09:14:15;-11614.47;;;24.54;85.14
10145;BME280;5113;41.822;23.564;2022-09-09T09:17:28;-11626.03;;;24.95;82.16
10145;BME280;5113;41.822;23.564;2022-09-09T09:20:45;-11631.97;;;25.17;80.90
10145;BME280;5113;41.822;23.564;2022-09-09T09:23:58;-11600.75;;;24.04;82.04
10145;BME280;5113;41.822;23.564;2022-09-09T09:27:12;-11625.88;;;24.95;77.66
10145;BME280;5113;41.822;23.564;2022-09-09T09:30:21;-11629.72;;;25.09;77.08
10145;BME280;5113;41.822;23.564;2022-09-09T09:33:36;-11636.06;;;25.31;76.28
10145;BME280;5113;41.822;23.564;2022-09-09T09:36:53;-11631.69;;;25.16;77.89
10145;BME280;5113;41.822;23.564;2022-09-09T09:40:08;-11640.44;;;25.47;74.95
10145;BME280;5113;41.822;23.564;2022-09-09T09:43:19;-11666.72;;;26.42;71.12
10145;BME280;5113;41.822;23.564;2022-09-09T09:46:27;-11665.56;;;26.38;73.70
10145;BME280;5113;41.822;23.564;2022-09-09T09:49:34;-11674.03;;;26.68;73.76
10145;BME280;5113;41.822;23.564;2022-09-09T09:52:42;-11684.38;;;27.05;67.99
10145;BME280;5113;41.822;23.564;2022-09-09T09:55:53;-11683.66;;;27.03;66.52
10145;BME280;5113;41.822;23.564;2022-09-09T09:59:00;-11694.94;;;27.43;64.60
10145;BME280;5113;41.822;23.564;2022-09-09T10:02:22;-11694.53;;;27.42;65.58
10145;BME280;5113;41.822;23.564;2022-09-09T10:05:31;-11698.34;;;27.55;63.24
10145;BME280;5113;41.822;23.564;2022-09-09T10:08:46;-11700.47;;;27.63;63.61
10145;BME280;5113;41.822;23.564;2022-09-09T10:11:57;-11711.34;;;28.02;59.78
10145;BME280;5113;41.822;23.564;2022-09-09T10:15:21;-11697.50;;;27.52;63.13
10145;BME280;5113;41.822;23.564;2022-09-09T10:18:47;-11685.06;;;27.08;62.55
10145;BME280;5113;41.822;23.564;2022-09-09T10:22:09;-11690.16;;;27.26;64.69
10145;BME280;5113;41.822;23.564;2022-09-09T10:25:35;-11683.09;;;27.01;62.35
10145;BME280;5113;41.822;23.564;2022-09-09T10:29:00;-11687.03;;;27.15;64.21
10145;BME280;5113;41.822;23.564;2022-09-09T10:32:33;-11660.63;;;26.20;64.76
10145;BME280;5113;41.822;23.564;2022-09-09T10:35:47;-11674.47;;;26.70;66.06
10145;BME280;5113;41.822;23.564;2022-09-09T10:39:00;-11668.81;;;26.49;66.96
10145;BME280;5113;41.822;23.564;2022-09-09T10:42:12;-11678.72;;;26.85;67.89
10145;BME280;5113;41.822;23.564;2022-09-09T10:45:24;-11664.03;;;26.32;69.91
10145;BME280;5113;41.822;23.564;2022-09-09T10:48:47;-11686.47;;;27.13;65.35
10145;BME280;5113;41.822;23.564;2022-09-09T10:52:01;-11695.78;;;27.46;60.09
10145;BME280;5113;41.822;23.564;2022-09-09T10:55:14;-11719.38;;;28.31;58.38
10145;BME280;5113;41.822;23.564;2022-09-09T10:58:28;-11707.81;;;27.89;64.47
10145;BME280;5113;41.822;23.564;2022-09-09T11:01:42;-11702.59;;;27.71;63.58
10145;BME280;5113;41.822;23.564;2022-09-09T11:04:54;-11713.16;;;28.09;59.79
10145;BME280;5113;41.822;23.564;2022-09-09T11:08:05;-11732.81;;;28.79;56.41
10145;BME280;5113;41.822;23.564;2022-09-09T11:11:20;-11743.69;;;29.18;55.30
10145;BME280;5113;41.822;23.564;2022-09-09T11:14:34;-11706.53;;;27.85;60.33
10145;BME280;5113;41.822;23.564;2022-09-09T11:17:47;-11703.44;;;27.74;60.70
10145;BME280;5113;41.822;23.564;2022-09-09T11:20:59;-11720.81;;;28.36;58.52
10145;BME280;5113;41.822;23.564;2022-09-09T11:24:11;-11728.56;;;28.64;54.90
10145;BME280;5113;41.822;23.564;2022-09-09T11:27:23;-11733.37;;;28.81;56.97
10145;BME280;5113;41.822;23.564;2022-09-09T11:30:40;-11728.00;;;28.62;58.06
10145;BME280;5113;41.822;23.564;2022-09-09T11:34:27;-11726.44;;;28.56;59.17
10145;BME280;5113;41.822;23.564;2022-09-09T11:37:49;-11717.56;;;28.24;57.59
10145;BME280;5113;41.822;23.564;2022-09-09T11:41:00;-11708.22;;;27.91;60.67
10145;BME280;5113;41.822;23.564;2022-09-09T11:44:11;-11718.97;;;28.30;58.91
10145;BME280;5113;41.822;23.564;2022-09-09T11:47:25;-11719.09;;;28.30;60.31
10145;BME280;5113;41.822;23.564;2022-09-09T11:50:36;-11727.44;;;28.60;56.11
10145;BME280;5113;41.822;23.564;2022-09-09T11:53:51;-11734.50;;;28.85;58.78
10145;BME280;5113;41.822;23.564;2022-09-09T11:56:58;-11717.13;;;28.23;57.86
10145;BME280;5113;41.822;23.564;2022-09-09T12:00:06;-11720.38;;;28.35;59.62
10145;BME280;5113;41.822;23.564;2022-09-09T12:03:35;-11714.31;;;28.13;60.48
10145;BME280;5113;41.822;23.564;2022-09-09T12:06:46;-11735.91;;;28.90;55.42
10145;BME280;5113;41.822;23.564;2022-09-09T12:09:56;-11730.53;;;28.71;57.50
10145;BME280;5113;41.822;23.564;2022-09-09T12:13:15;-11722.34;;;28.42;58.97
10145;BME280;5113;41.822;23.564;2022-09-09T12:16:30;-11697.78;;;27.53;63.29
10145;BME280;5113;41.822;23.564;2022-09-09T12:19:39;-11721.22;;;28.38;60.11
10145;BME280;5113;41.822;23.564;2022-09-09T12:23:14;-11730.53;;;28.71;57.39
10145;BME280;5113;41.822;23.564;2022-09-09T12:26:31;-11696.06;;;27.47;62.61
10145;BME280;5113;41.822;23.564;2022-09-09T12:29:44;-11691.28;;;27.30;66.88
10145;BME280;5113;41.822;23.564;2022-09-09T12:33:01;-11718.12;;;28.26;59.77
10145;BME280;5113;41.822;23.564;2022-09-09T12:36:12;-11716.13;;;28.19;61.45
10145;BME280;5113;41.822;23.564;2022-09-09T12:39:27;-11716.72;;;28.21;59.41
10145;BME280;5113;41.822;23.564;2022-09-09T12:42:39;-11696.06;;;27.47;64.88
10145;BME280;5113;41.822;23.564;2022-09-09T12:45:47;-11695.50;;;27.45;67.00
10145;BME280;5113;41.822;23.564;2022-09-09T12:48:55;-11693.41;;;27.38;65.21
10145;BME280;5113;41.822;23.564;2022-09-09T12:52:05;-11698.91;;;27.57;64.69
10145;BME280;5113;41.822;23.564;2022-09-09T12:55:18;-11703.44;;;27.74;64.79
10145;BME280;5113;41.822;23.564;2022-09-09T12:58:26;-11688.72;;;27.21;64.44
10145;BME280;5113;41.822;23.564;2022-09-09T13:01:37;-11710.34;;;27.99;61.45
10145;BME280;5113;41.822;23.564;2022-09-09T13:04:44;-11691.41;;;27.30;67.79
10145;BME280;5113;41.822;23.564;2022-09-09T13:08:00;-11690.00;;;27.25;69.02
10145;BME280;5113;41.822;23.564;2022-09-09T13:11:11;-11712.59;;;28.07;64.34
10145;BME280;5113;41.822;23.564;2022-09-09T13:14:28;-11699.91;;;27.61;67.02
10145;BME280;5113;41.822;23.564;2022-09-09T13:17:34;-11689.31;;;27.23;67.85
10145;BME280;5113;41.822;23.564;2022-09-09T13:20:46;-11692.69;;;27.35;68.33
10145;BME280;5113;41.822;23.564;2022-09-09T13:23:54;-11692.84;;;27.36;67.08
10145;BME280;5113;41.822;23.564;2022-09-09T13:27:02;-11686.47;;;27.13;70.13
10145;BME280;5113;41.822;23.564;2022-09-09T13:30:21;-11676.03;;;26.75;73.82
10145;BME280;5113;41.822;23.564;2022-09-09T13:33:33;-11682.09;;;26.97;72.49
10145;BME280;5113;41.822;23.564;2022-09-09T13:36:46;-11670.25;;;26.54;73.97
10145;BME280;5113;41.822;23.564;2022-09-09T13:39:55;-11677.16;;;26.79;73.72
10145;BME280;5113;41.822;23.564;2022-09-09T13:43:03;-11677.44;;;26.80;70.33
10145;BME280;5113;41.822;23.564;2022-09-09T13:46:25;-11674.91;;;26.71;71.83
10145;BME280;5113;41.822;23.564;2022-09-09T13:49:32;-11675.47;;;26.73;70.79
10145;BME280;5113;41.822;23.564;2022-09-09T13:52:39;-11675.47;;;26.73;71.24
10145;BME280;5113;41.822;23.564;2022-09-09T13:55:47;-11670.66;;;26.56;71.28
10145;BME280;5113;41.822;23.564;2022-09-09T13:58:57;-11672.34;;;26.62;71.89
10145;BME280;5113;41.822;23.564;2022-09-09T14:02:03;-11662.87;;;26.28;72.98
10145;BME280;5113;41.822;23.564;2022-09-09T14:05:09;-11674.91;;;26.71;71.41
10145;BME280;5113;41.822;23.564;2022-09-09T14:08:22;-11669.97;;;26.53;74.87
10145;BME280;5113;41.822;23.564;2022-09-09T14:11:31;-11669.81;;;26.53;72.82
10145;BME280;5113;41.822;23.564;2022-09-09T14:14:37;-11650.31;;;25.83;74.01
10145;BME280;5113;41.822;23.564;2022-09-09T14:17:43;-11652.31;;;25.90;69.42
10145;BME280;5113;41.822;23.564;2022-09-09T14:20:49;-11642.13;;;25.53;70.29
10145;BME280;5113;41.822;23.564;2022-09-09T14:23:56;-11641.84;;;25.52;69.74
10145;BME280;5113;41.822;23.564;2022-09-09T14:27:05;-11646.66;;;25.70;69.42
10145;BME280;5113;41.822;23.564;2022-09-09T14:30:11;-11645.53;;;25.65;71.86
10145;BME280;5113;41.822;23.564;2022-09-09T14:33:18;-11643.25;;;25.57;70.38
10145;BME280;5113;41.822;23.564;2022-09-09T14:36:24;-11642.97;;;25.56;69.43
10145;BME280;5113;41.822;23.564;2022-09-09T14:39:31;-11634.94;;;25.27;73.72
10145;BME280;5113;41.822;23.564;2022-09-09T14:42:38;-11629.16;;;25.07;79.30
10145;BME280;5113;41.822;23.564;2022-09-09T14:45:45;-11636.50;;;25.33;74.59
10145;BME280;5113;41.822;23.564;2022-09-09T14:48:53;-11629.00;;;25.06;75.32
10145;BME280;5113;41.822;23.564;2022-09-09T14:51:59;-11630.28;;;25.11;76.19
10145;BME280;5113;41.822;23.564;2022-09-09T14:55:06;-11629.16;;;25.07;74.35
10145;BME280;5113;41.822;23.564;2022-09-09T14:58:14;-11627.31;;;25.00;75.85
10145;BME280;5113;41.822;23.564;2022-09-09T15:01:21;-11631.41;;;25.15;72.11
10145;BME280;5113;41.822;23.564;2022-09-09T15:04:27;-11635.22;;;25.28;71.33
10145;BME280;5113;41.822;23.564;2022-09-09T15:07:34;-11630.69;;;25.12;77.13
10145;BME280;5113;41.822;23.564;2022-09-09T15:10:40;-11621.94;;;24.81;82.37
10145;BME280;5113;41.822;23.564;2022-09-09T15:13:51;-11624.06;;;24.88;83.67
10145;BME280;5113;41.822;23.564;2022-09-09T15:16:57;-11627.59;;;25.01;82.00
10145;BME280;5113;41.822;23.564;2022-09-09T15:20:04;-11636.50;;;25.33;78.80
10145;BME280;5113;41.822;23.564;2022-09-09T15:23:11;-11640.00;;;25.46;78.04
10145;BME280;5113;41.822;23.564;2022-09-09T15:26:19;-11642.69;;;25.55;76.41
10145;BME280;5113;41.822;23.564;2022-09-09T15:29:27;-11641.72;;;25.52;77.11
10145;BME280;5113;41.822;23.564;2022-09-09T15:32:34;-11638.75;;;25.41;76.31
10145;BME280;5113;41.822;23.564;2022-09-09T15:35:40;-11640.28;;;25.47;76.61
10145;BME280;5113;41.822;23.564;2022-09-09T15:38:46;-11635.91;;;25.31;78.16
10145;BME280;5113;41.822;23.564;2022-09-09T15:41:52;-11636.19;;;25.32;78.85
10145;BME280;5113;41.822;23.564;2022-09-09T15:45:00;-11630.41;;;25.11;80.93
10145;BME280;5113;41.822;23.564;2022-09-09T15:48:06;-11637.06;;;25.35;77.49
10145;BME280;5113;41.822;23.564;2022-09-09T15:51:12;-11634.38;;;25.25;76.38
10145;BME280;5113;41.822;23.564;2022-09-09T15:54:39;-11634.09;;;25.24;79.51
10145;BME280;5113;41.822;23.564;2022-09-09T15:57:47;-11633.53;;;25.22;80.98
10145;BME280;5113;41.822;23.564;2022-09-09T16:01:01;-11634.94;;;25.27;81.43
10145;BME280;5113;41.822;23.564;2022-09-09T16:04:08;-11624.75;;;24.91;83.18
10145;BME280;5113;41.822;23.564;2022-09-09T16:07:14;-11621.53;;;24.79;87.89
10145;BME280;5113;41.822;23.564;2022-09-09T16:10:21;-11619.13;;;24.71;93.17
10145;BME280;5113;41.822;23.564;2022-09-09T16:13:27;-11614.47;;;24.54;93.98
10145;BME280;5113;41.822;23.564;2022-09-09T16:16:35;-11608.66;;;24.33;95.80
10145;BME280;5113;41.822;23.564;2022-09-09T16:19:42;-11615.16;;;24.56;93.61
10145;BME280;5113;41.822;23.564;2022-09-09T16:22:48;-11592.44;;;23.75;100.00
10145;BME280;5113;41.822;23.564;2022-09-09T16:25:55;-11582.84;;;23.40;100.00
10145;BME280;5113;41.822;23.564;2022-09-09T16:29:08;-11581.28;;;23.34;100.00
10145;BME280;5113;41.822;23.564;2022-09-09T16:32:16;-11576.06;;;23.16;100.00